Time;durP1;ratioP1;P1;durP2;ratioP2;P2;SDS_P1;SDS_P2;PMS_P1;PMS_P2;Temp;Humidity;BMP_temperature;BMP_pressure;BME280_temperature;BME280_humidity;BME280_pressure;Samples;Min_cycle;Max_cycle;Signal;HPM_P1;HPM_P2
2024/01/11 00:00:29;;;;;;;0.20;0.20;;;-1.60;99.90;;;;;;4966742;28;20070;-67
2024/01/11 00:02:55;;;;;;;1.27;1.05;;;-1.70;99.90;;;;;;4960446;28;20081;-66
2024/01/11 00:05:21;;;;;;;0.55;0.55;;;-1.60;99.90;;;;;;4992892;28;20046;-67
2024/01/11 00:07:46;;;;;;;0.73;0.73;;;-1.70;99.90;;;;;;4965939;28;20189;-67
2024/01/11 00:10:12;;;;;;;0.32;0.32;;;-1.70;99.90;;;;;;4962391;28;20126;-66
2024/01/11 00:12:38;;;;;;;0.43;0.43;;;-1.70;99.90;;;;;;4989240;28;20483;-67
2024/01/11 00:15:04;;;;;;;1.30;1.30;;;-1.70;99.90;;;;;;4953398;28;20039;-67
2024/01/11 00:17:29;;;;;;;0.65;0.65;;;-1.70;99.90;;;;;;4960388;28;20043;-67
2024/01/11 00:19:55;;;;;;;0.30;0.30;;;-1.70;99.90;;;;;;4958519;28;20046;-67
2024/01/11 00:22:20;;;;;;;0.95;0.93;;;-1.70;99.90;;;;;;4953676;28;20054;-67
2024/01/11 00:24:46;;;;;;;0.43;0.43;;;-1.70;99.90;;;;;;4956514;28;20483;-67
2024/01/11 00:27:11;;;;;;;2.17;2.08;;;-1.70;99.90;;;;;;4956297;28;20114;-67
2024/01/11 00:29:37;;;;;;;2.60;2.38;;;-1.70;99.90;;;;;;4966970;28;20055;-67
2024/01/11 00:32:03;;;;;;;0.30;0.30;;;-1.70;99.90;;;;;;4964782;28;20057;-66
2024/01/11 00:34:29;;;;;;;1.20;1.13;;;-1.80;99.90;;;;;;4996591;28;20035;-67
2024/01/11 00:36:54;;;;;;;0.30;0.30;;;-1.80;99.90;;;;;;4969497;28;20054;-66
2024/01/11 00:39:20;;;;;;;0.75;0.75;;;-1.80;99.90;;;;;;4962363;28;20050;-67
2024/01/11 00:41:45;;;;;;;1.25;1.25;;;-1.80;99.90;;;;;;4954479;28;20055;-66
2024/01/11 00:44:11;;;;;;;0.32;0.32;;;-1.90;99.90;;;;;;4962937;28;20507;-67
2024/01/11 00:46:38;;;;;;;0.20;0.20;;;-1.90;99.90;;;;;;4954828;28;20058;-68
2024/01/11 00:49:03;;;;;;;0.20;0.20;;;-1.90;99.90;;;;;;4962463;28;20051;-66
2024/01/11 00:51:29;;;;;;;0.20;0.20;;;-1.90;99.90;;;;;;4965312;28;20043;-66
2024/01/11 00:53:54;;;;;;;0.68;0.68;;;-1.90;99.90;;;;;;4955451;28;20447;-66
2024/01/11 00:56:21;;;;;;;0.68;0.68;;;-2.00;99.90;;;;;;4955184;28;20113;-66
2024/01/11 00:58:46;;;;;;;1.58;1.55;;;-1.90;99.90;;;;;;4962821;28;20047;-66
2024/01/11 01:01:13;;;;;;;0.57;0.57;;;-2.00;99.90;;;;;;4956964;28;20488;-66
2024/01/11 01:03:39;;;;;;;0.20;0.20;;;-2.00;99.90;;;;;;4961513;28;20082;-66
2024/01/11 01:06:05;;;;;;;0.25;0.25;;;-1.90;99.90;;;;;;4989279;28;20543;-66
2024/01/11 01:08:31;;;;;;;0.20;0.20;;;-1.90;99.90;;;;;;4961860;28;20062;-66
2024/01/11 01:10:57;;;;;;;0.95;0.95;;;-1.90;99.90;;;;;;4966377;28;20714;-66
2024/01/11 01:13:23;;;;;;;0.55;0.55;;;-1.90;99.90;;;;;;4957314;28;20066;-66
2024/01/11 01:15:48;;;;;;;0.40;0.40;;;-1.90;99.90;;;;;;4959381;28;20039;-66
2024/01/11 01:18:14;;;;;;;1.52;1.42;;;-1.90;99.90;;;;;;4959175;28;20435;-66
2024/01/11 01:20:40;;;;;;;0.50;0.50;;;-1.90;99.90;;;;;;4992860;28;20043;-66
2024/01/11 01:23:05;;;;;;;1.35;1.27;;;-1.80;99.90;;;;;;4963229;28;20047;-66
2024/01/11 01:25:32;;;;;;;0.20;0.20;;;-1.90;99.90;;;;;;4996804;28;20047;-66
2024/01/11 01:27:59;;;;;;;0.40;0.40;;;-1.90;99.90;;;;;;4962979;28;20561;-66
2024/01/11 01:30:25;;;;;;;0.40;0.40;;;-1.90;99.90;;;;;;4963843;28;20051;-66
2024/01/11 01:32:50;;;;;;;0.25;0.25;;;-1.90;99.90;;;;;;4956504;28;20104;-66
2024/01/11 01:35:16;;;;;;;9.95;1.52;;;-1.90;99.90;;;;;;4961976;28;20046;-66
2024/01/11 01:37:42;;;;;;;0.52;0.52;;;-1.90;99.90;;;;;;4972064;28;20050;-66
2024/01/11 01:40:08;;;;;;;0.20;0.20;;;-1.90;99.90;;;;;;4970238;28;20049;-66
2024/01/11 01:42:34;;;;;;;0.55;0.55;;;-1.90;99.90;;;;;;4959094;28;20101;-66
2024/01/11 01:45:00;;;;;;;1.90;1.80;;;-1.90;99.90;;;;;;4964949;28;20074;-67
2024/01/11 01:47:26;;;;;;;4.40;2.38;;;-1.90;99.90;;;;;;4961390;28;20046;-66
2024/01/11 01:49:53;;;;;;;0.20;0.20;;;-1.90;99.90;;;;;;4966268;28;20069;-66
2024/01/11 01:52:19;;;;;;;0.20;0.20;;;-1.90;99.90;;;;;;4967925;28;20518;-66
2024/01/11 01:54:47;;;;;;;4.57;1.40;;;-1.90;99.90;;;;;;4959135;28;20900;-67
2024/01/11 01:57:13;;;;;;;0.68;0.68;;;-1.90;99.90;;;;;;4967212;28;20050;-66
2024/01/11 01:59:39;;;;;;;0.22;0.22;;;-1.90;99.90;;;;;;4957710;28;20499;-66
2024/01/11 02:02:06;;;;;;;3.30;1.25;;;-1.90;99.90;;;;;;4969027;28;20054;-67
2024/01/11 02:04:31;;;;;;;3.70;1.95;;;-1.90;99.90;;;;;;4952294;28;20051;-67
2024/01/11 02:06:58;;;;;;;2.75;1.75;;;-1.90;99.90;;;;;;4988496;28;20047;-67
2024/01/11 02:09:24;;;;;;;7.40;4.25;;;-1.90;99.90;;;;;;4961284;28;20109;-66
2024/01/11 02:11:51;;;;;;;0.68;0.68;;;-2.00;99.90;;;;;;4967845;28;20478;-66
2024/01/11 02:14:18;;;;;;;0.50;0.50;;;-1.90;99.90;;;;;;4962128;28;20482;-66
2024/01/11 02:16:44;;;;;;;1.38;1.27;;;-1.90;99.90;;;;;;4954885;28;20050;-67
2024/01/11 02:19:16;;;;;;;3.55;1.52;;;-1.90;99.90;;;;;;4963212;28;20047;-67
2024/01/11 02:21:43;;;;;;;0.90;0.90;;;-1.90;99.90;;;;;;4962335;28;20129;-67
2024/01/11 02:24:10;;;;;;;1.27;0.73;;;-1.90;99.90;;;;;;4989721;28;20506;-66
2024/01/11 02:26:35;;;;;;;0.40;0.40;;;-1.90;99.90;;;;;;4968598;28;20078;-67
2024/01/11 02:29:01;;;;;;;4.55;2.75;;;-2.00;99.90;;;;;;4963435;28;20067;-66
2024/01/11 02:31:27;;;;;;;1.85;1.75;;;-2.00;99.90;;;;;;4966351;28;20511;-67
2024/01/11 02:33:54;;;;;;;0.88;0.88;;;-2.00;99.90;;;;;;4963410;28;20394;-66
2024/01/11 02:36:21;;;;;;;0.68;0.68;;;-2.00;99.90;;;;;;4967370;28;20035;-66
2024/01/11 02:38:47;;;;;;;1.20;0.82;;;-1.90;99.90;;;;;;4968781;28;20054;-66
2024/01/11 02:41:16;;;;;;;0.50;0.50;;;-2.00;99.90;;;;;;4964471;28;20062;-66
2024/01/11 02:43:47;;;;;;;0.68;0.68;;;-2.00;99.90;;;;;;4966438;28;20051;-66
2024/01/11 02:46:13;;;;;;;0.77;0.77;;;-2.00;99.90;;;;;;4968673;28;20062;-67
2024/01/11 02:48:39;;;;;;;1.40;1.30;;;-1.90;99.90;;;;;;4993435;28;20059;-67
2024/01/11 02:51:05;;;;;;;2.78;2.58;;;-2.00;99.90;;;;;;4962349;28;20039;-67
2024/01/11 02:53:34;;;;;;;1.20;1.20;;;-1.90;99.90;;;;;;4956377;28;20062;-66
2024/01/11 02:56:02;;;;;;;0.77;0.77;;;-1.90;99.90;;;;;;4970869;28;20050;-66
2024/01/11 02:58:28;;;;;;;0.57;0.57;;;-2.00;99.90;;;;;;4968761;28;20054;-66
2024/01/11 03:00:53;;;;;;;1.77;1.67;;;-1.90;99.90;;;;;;4960038;28;20046;-66
2024/01/11 03:03:19;;;;;;;1.27;1.05;;;-1.90;99.90;;;;;;4997341;28;20074;-66
2024/01/11 03:05:45;;;;;;;0.47;0.47;;;-1.90;99.90;;;;;;4958717;28;20529;-66
2024/01/11 03:08:10;;;;;;;0.55;0.55;;;-1.90;99.90;;;;;;4961989;28;20048;-66
2024/01/11 03:10:39;;;;;;;0.40;0.40;;;-1.90;99.90;;;;;;4959226;28;20070;-66
2024/01/11 03:13:07;;;;;;;4.13;1.50;;;-1.90;99.90;;;;;;4991199;28;20551;-66
2024/01/11 03:15:32;;;;;;;4.03;1.30;;;-1.90;99.90;;;;;;4985580;28;20051;-66
2024/01/11 03:17:58;;;;;;;1.10;1.10;;;-1.90;99.90;;;;;;4964575;28;20384;-66
2024/01/11 03:20:24;;;;;;;3.30;0.95;;;-1.90;99.90;;;;;;4965721;28;20043;-66
2024/01/11 03:22:53;;;;;;;0.75;0.75;;;-1.90;99.90;;;;;;4961317;28;20058;-66
2024/01/11 03:25:19;;;;;;;0.80;0.80;;;-1.90;99.90;;;;;;4956485;28;20830;-66
2024/01/11 03:27:45;;;;;;;2.03;1.85;;;-1.90;99.90;;;;;;4961574;28;20042;-66
2024/01/11 03:30:11;;;;;;;0.25;0.25;;;-1.90;99.90;;;;;;4968830;28;20058;-66
2024/01/11 03:32:38;;;;;;;1.40;1.40;;;-1.90;99.90;;;;;;4958865;28;20392;-66
2024/01/11 03:35:06;;;;;;;0.20;0.20;;;-1.90;99.90;;;;;;4963543;28;20042;-67
2024/01/11 03:37:32;;;;;;;9.68;2.75;;;-1.90;99.90;;;;;;4965348;28;20387;-66
2024/01/11 03:39:58;;;;;;;3.35;2.55;;;-1.90;99.90;;;;;;4962014;28;20062;-66
2024/01/11 03:42:24;;;;;;;0.30;0.30;;;-1.90;99.90;;;;;;4960001;28;20498;-66
2024/01/11 03:44:49;;;;;;;0.32;0.32;;;-1.80;99.90;;;;;;4969790;28;20066;-67
2024/01/11 03:47:15;;;;;;;0.50;0.50;;;-1.80;99.90;;;;;;4966204;28;20046;-66
2024/01/11 03:49:40;;;;;;;0.45;0.45;;;-1.80;99.90;;;;;;4992199;28;20050;-66
2024/01/11 03:52:06;;;;;;;0.45;0.45;;;-1.80;99.90;;;;;;4966875;28;20066;-66
2024/01/11 03:54:31;;;;;;;0.20;0.20;;;-1.80;99.90;;;;;;4955239;28;20043;-66
2024/01/11 03:56:57;;;;;;;0.52;0.52;;;-1.90;99.90;;;;;;4957442;28;20050;-66
2024/01/11 03:59:23;;;;;;;0.80;0.80;;;-1.90;99.90;;;;;;4962676;28;20102;-66
2024/01/11 04:01:48;;;;;;;0.40;0.40;;;-1.90;99.90;;;;;;4966390;28;20054;-66
2024/01/11 04:04:14;;;;;;;0.50;0.50;;;-2.00;99.90;;;;;;4969070;28;20047;-66
2024/01/11 04:06:39;;;;;;;0.43;0.43;;;-2.00;99.90;;;;;;4970477;28;20042;-66
2024/01/11 04:09:05;;;;;;;0.35;0.35;;;-2.10;99.90;;;;;;4965162;28;20094;-66
2024/01/11 04:11:30;;;;;;;0.20;0.20;;;-2.10;99.90;;;;;;4966593;28;20050;-66
2024/01/11 04:13:56;;;;;;;0.20;0.20;;;-2.10;99.90;;;;;;4970848;28;20129;-66
2024/01/11 04:16:22;;;;;;;0.95;0.95;;;-2.10;99.90;;;;;;4964620;28;20145;-66
2024/01/11 04:18:47;;;;;;;1.65;1.58;;;-2.10;99.90;;;;;;4968971;28;20046;-66
2024/01/11 04:21:23;;;;;;;2.75;2.55;;;-2.10;99.90;;;;;;4959591;28;20039;-66
2024/01/11 04:23:50;;;;;;;0.47;0.47;;;-2.10;99.90;;;;;;4963078;28;20101;-66
2024/01/11 04:26:15;;;;;;;0.30;0.30;;;-2.10;99.90;;;;;;4961775;28;20080;-66
2024/01/11 04:28:41;;;;;;;0.88;0.88;;;-2.20;99.90;;;;;;4962862;28;20074;-66
2024/01/11 04:31:08;;;;;;;1.55;1.45;;;-2.20;99.90;;;;;;4956861;28;20696;-66
2024/01/11 04:33:34;;;;;;;0.30;0.30;;;-2.20;99.90;;;;;;4968258;28;20046;-66
2024/01/11 04:35:59;;;;;;;1.85;1.75;;;-2.20;99.90;;;;;;4966524;28;20085;-66
2024/01/11 04:38:25;;;;;;;2.55;2.10;;;-2.20;99.90;;;;;;4989392;28;20043;-66
2024/01/11 04:40:50;;;;;;;0.95;0.68;;;-2.20;99.90;;;;;;4960643;28;20047;-66
2024/01/11 04:43:16;;;;;;;0.20;0.20;;;-2.10;99.90;;;;;;4965708;28;20043;-66
2024/01/11 04:45:41;;;;;;;3.38;1.45;;;-2.20;99.90;;;;;;4963127;28;20051;-66
2024/01/11 04:48:07;;;;;;;0.22;0.22;;;-2.20;99.90;;;;;;4967278;28;20126;-66
2024/01/11 04:50:32;;;;;;;0.20;0.20;;;-2.20;99.90;;;;;;4954325;28;20094;-66
2024/01/11 04:52:58;;;;;;;0.47;0.47;;;-2.20;99.90;;;;;;4961673;28;20108;-66
2024/01/11 04:55:23;;;;;;;0.68;0.68;;;-2.20;99.90;;;;;;4997248;28;20043;-66
2024/01/11 04:57:49;;;;;;;2.60;2.38;;;-2.10;99.90;;;;;;4961807;28;20043;-66
2024/01/11 05:00:15;;;;;;;0.82;0.82;;;-2.10;99.90;;;;;;4959320;28;20047;-66
2024/01/11 05:02:41;;;;;;;3.10;2.60;;;-2.00;99.90;;;;;;4964522;28;20042;-66
2024/01/11 05:05:06;;;;;;;2.90;0.90;;;-1.90;99.90;;;;;;4960442;28;20502;-66
2024/01/11 05:07:32;;;;;;;6.45;1.92;;;-1.90;99.90;;;;;;4954914;28;20399;-66
2024/01/11 05:09:57;;;;;;;1.85;1.75;;;-1.80;99.90;;;;;;4959250;28;20043;-66
2024/01/11 05:12:23;;;;;;;0.88;0.88;;;-1.80;99.90;;;;;;4961228;28;20043;-66
2024/01/11 05:14:48;;;;;;;1.70;1.60;;;-1.80;99.90;;;;;;4968027;28;20047;-66
2024/01/11 05:17:14;;;;;;;0.35;0.35;;;-1.70;99.90;;;;;;4961531;28;20050;-66
2024/01/11 05:19:39;;;;;;;0.38;0.38;;;-1.60;99.90;;;;;;4957479;28;20043;-66
2024/01/11 05:22:05;;;;;;;1.88;0.93;;;-1.60;99.90;;;;;;4966803;28;20061;-66
2024/01/11 05:24:31;;;;;;;2.55;1.35;;;-1.60;99.90;;;;;;4965137;28;20062;-66
2024/01/11 05:26:56;;;;;;;1.65;0.68;;;-1.60;99.90;;;;;;4965352;28;20050;-66
2024/01/11 05:29:22;;;;;;;0.82;0.82;;;-1.50;99.90;;;;;;4969956;28;20070;-66
2024/01/11 05:31:47;;;;;;;1.23;1.20;;;-1.50;99.90;;;;;;4958288;28;20051;-66
2024/01/11 05:34:13;;;;;;;1.27;1.27;;;-1.40;99.90;;;;;;4965558;28;20053;-66
2024/01/11 05:36:38;;;;;;;5.13;4.28;;;-1.40;99.90;;;;;;4995578;28;20699;-66
2024/01/11 05:39:04;;;;;;;1.15;1.10;;;-1.40;99.90;;;;;;4964493;28;20690;-66
2024/01/11 05:41:30;;;;;;;1.33;1.33;;;-1.40;99.90;;;;;;4965485;28;20054;-66
2024/01/11 05:43:55;;;;;;;1.52;1.42;;;-1.40;99.90;;;;;;4967603;28;20047;-66
2024/01/11 05:46:21;;;;;;;0.98;0.93;;;-1.30;99.90;;;;;;4990771;28;20083;-66
2024/01/11 05:48:46;;;;;;;0.40;0.40;;;-1.30;99.90;;;;;;4963583;28;20392;-66
2024/01/11 05:51:12;;;;;;;5.38;1.25;;;-1.30;99.90;;;;;;4967686;28;20043;-66
2024/01/11 05:53:37;;;;;;;0.60;0.60;;;-1.30;99.90;;;;;;4957549;28;20058;-66
2024/01/11 05:56:10;;;;;;;0.20;0.20;;;-1.20;99.90;;;;;;4989651;28;20439;-66
2024/01/11 05:58:37;;;;;;;0.20;0.20;;;-1.20;99.90;;;;;;4969866;28;20391;-66
2024/01/11 06:01:03;;;;;;;0.38;0.38;;;-1.20;99.90;;;;;;4966366;28;21285;-66
2024/01/11 06:03:29;;;;;;;0.85;0.85;;;-1.20;99.90;;;;;;4958863;28;20058;-66
2024/01/11 06:05:55;;;;;;;1.13;1.08;;;-1.20;99.90;;;;;;4964357;28;20438;-66
2024/01/11 06:08:21;;;;;;;0.77;0.77;;;-1.10;99.90;;;;;;4967960;28;20125;-66
2024/01/11 06:10:46;;;;;;;0.95;0.90;;;-1.10;99.90;;;;;;4961163;28;20170;-66
2024/01/11 06:13:12;;;;;;;0.45;0.45;;;-1.10;99.90;;;;;;4972391;28;20046;-66
2024/01/11 06:15:38;;;;;;;0.93;0.93;;;-1.10;99.90;;;;;;4971408;28;20072;-66
2024/01/11 06:18:04;;;;;;;0.70;0.70;;;-1.00;99.90;;;;;;4970674;28;20043;-66
2024/01/11 06:20:30;;;;;;;0.73;0.73;;;-1.00;99.90;;;;;;4967368;28;20081;-66
2024/01/11 06:22:56;;;;;;;1.10;1.10;;;-1.00;99.90;;;;;;4997516;28;20089;-66
2024/01/11 06:25:21;;;;;;;0.30;0.30;;;-0.90;99.90;;;;;;4967747;28;20041;-66
2024/01/11 06:27:47;;;;;;;0.90;0.65;;;-1.00;99.90;;;;;;4971257;28;20043;-66
2024/01/11 06:30:13;;;;;;;0.68;0.68;;;-1.00;99.90;;;;;;4969120;28;20041;-66
2024/01/11 06:32:38;;;;;;;0.20;0.20;;;-0.90;99.90;;;;;;4962071;28;20573;-66
2024/01/11 06:35:05;;;;;;;0.20;0.20;;;-0.90;99.90;;;;;;4970363;28;20038;-66
2024/01/11 06:37:30;;;;;;;2.17;2.08;;;-0.90;99.90;;;;;;4966089;28;20072;-66
2024/01/11 06:39:56;;;;;;;0.65;0.65;;;-0.90;99.90;;;;;;4971946;28;20042;-66
2024/01/11 06:42:22;;;;;;;0.20;0.20;;;-0.90;99.90;;;;;;4968577;28;20050;-66
2024/01/11 06:44:48;;;;;;;0.40;0.40;;;-0.80;99.90;;;;;;4960874;28;20113;-66
2024/01/11 06:47:14;;;;;;;0.57;0.57;;;-0.80;99.90;;;;;;4998774;28;20047;-66
2024/01/11 06:49:40;;;;;;;1.50;1.40;;;-0.80;99.90;;;;;;4956214;28;20058;-66
2024/01/11 06:52:06;;;;;;;0.95;0.95;;;-0.70;99.90;;;;;;4967367;28;20383;-67
2024/01/11 06:54:32;;;;;;;7.05;4.95;;;-0.70;99.90;;;;;;4972208;28;20122;-66
2024/01/11 06:56:57;;;;;;;0.38;0.38;;;-0.70;99.90;;;;;;4964639;28;20054;-67
2024/01/11 06:59:23;;;;;;;0.93;0.82;;;-0.70;99.90;;;;;;4966487;28;20050;-66
2024/01/11 07:01:49;;;;;;;0.50;0.50;;;-0.70;99.90;;;;;;4964760;28;20046;-66
2024/01/11 07:04:15;;;;;;;1.70;1.60;;;-0.60;99.90;;;;;;4971623;28;20398;-66
2024/01/11 07:06:40;;;;;;;11.90;2.60;;;-0.60;99.90;;;;;;4970080;28;20200;-66
2024/01/11 07:09:06;;;;;;;1.15;1.05;;;-0.60;99.90;;;;;;4969498;28;20125;-66
2024/01/11 07:11:32;;;;;;;0.70;0.70;;;-0.50;99.90;;;;;;4959502;28;20093;-66
2024/01/11 07:13:58;;;;;;;0.57;0.57;;;-0.50;99.90;;;;;;4963248;28;20466;-66
2024/01/11 07:16:23;;;;;;;0.32;0.32;;;-0.50;99.90;;;;;;4970747;28;20471;-66
2024/01/11 07:18:49;;;;;;;0.60;0.60;;;-0.50;99.90;;;;;;4971344;28;20054;-66
2024/01/11 07:21:31;;;;;;;1.85;0.98;;;-0.50;99.90;;;;;;4969839;28;20031;-66
2024/01/11 07:24:00;;;;;;;0.38;0.38;;;-0.40;99.90;;;;;;4959923;28;20058;-66
2024/01/11 07:26:26;;;;;;;2.80;1.92;;;-0.50;99.90;;;;;;4969257;28;20038;-66
2024/01/11 07:28:51;;;;;;;0.38;0.38;;;-0.40;99.90;;;;;;4969575;28;20066;-66
2024/01/11 07:31:17;;;;;;;0.40;0.40;;;-0.40;99.90;;;;;;4955651;28;20075;-66
2024/01/11 07:33:44;;;;;;;0.30;0.30;;;-0.40;99.90;;;;;;4969716;28;20464;-66
2024/01/11 07:36:10;;;;;;;0.25;0.25;;;-0.40;99.90;;;;;;4965675;28;20403;-66
2024/01/11 07:38:36;;;;;;;5.10;2.10;;;-0.40;99.90;;;;;;4992554;28;20047;-67
2024/01/11 07:41:01;;;;;;;1.17;1.10;;;-0.40;99.90;;;;;;4965018;28;20061;-66
2024/01/11 07:43:28;;;;;;;2.45;2.17;;;-0.30;99.90;;;;;;4997706;28;20042;-66
2024/01/11 07:45:56;;;;;;;2.42;2.25;;;-0.30;99.90;;;;;;4966413;28;20074;-66
2024/01/11 07:48:22;;;;;;;1.27;1.27;;;-0.30;99.90;;;;;;4970610;28;20047;-67
2024/01/11 07:50:48;;;;;;;0.47;0.47;;;-0.30;99.90;;;;;;4991070;28;20065;-67
2024/01/11 07:53:14;;;;;;;0.30;0.30;;;-0.20;99.90;;;;;;4962966;28;20042;-67
2024/01/11 07:55:40;;;;;;;0.20;0.20;;;-0.20;99.90;;;;;;4958276;28;20051;-67
2024/01/11 07:58:06;;;;;;;0.20;0.20;;;-0.20;99.90;;;;;;4967763;28;20454;-67
2024/01/11 08:00:32;;;;;;;0.65;0.65;;;-0.10;99.90;;;;;;4959714;28;20101;-67
2024/01/11 08:02:57;;;;;;;1.20;1.20;;;-0.10;99.90;;;;;;4960093;28;20047;-67
2024/01/11 08:05:23;;;;;;;0.28;0.28;;;0.00;99.90;;;;;;4969957;28;20034;-66
2024/01/11 08:07:49;;;;;;;1.10;1.10;;;0.00;99.90;;;;;;4970500;28;20046;-67
2024/01/11 08:10:15;;;;;;;0.70;0.70;;;0.00;99.90;;;;;;4970409;28;20399;-67
2024/01/11 08:12:40;;;;;;;1.08;1.00;;;0.00;99.90;;;;;;4963582;28;20047;-67
2024/01/11 08:15:06;;;;;;;0.90;0.90;;;0.00;99.90;;;;;;4968220;28;20061;-67
2024/01/11 08:17:32;;;;;;;1.23;1.17;;;0.00;99.90;;;;;;4970064;28;20047;-67
2024/01/11 08:19:57;;;;;;;0.98;0.45;;;0.00;99.90;;;;;;4963229;28;20050;-67
2024/01/11 08:22:23;;;;;;;0.60;0.60;;;0.00;99.90;;;;;;4993356;28;20055;-67
2024/01/11 08:24:49;;;;;;;2.75;1.48;;;0.00;99.90;;;;;;4969804;28;20104;-67
2024/01/11 08:27:17;;;;;;;1.73;1.58;;;0.10;99.90;;;;;;4968566;28;20380;-66
2024/01/11 08:29:43;;;;;;;1.00;0.95;;;0.10;99.90;;;;;;4988058;28;20495;-66
2024/01/11 08:32:09;;;;;;;0.20;0.20;;;0.10;99.90;;;;;;4969210;28;20511;-66
2024/01/11 08:34:34;;;;;;;1.05;1.05;;;0.20;99.90;;;;;;5000527;28;20042;-67
2024/01/11 08:37:00;;;;;;;0.25;0.25;;;0.20;99.90;;;;;;4961181;28;20047;-67
2024/01/11 08:39:25;;;;;;;0.52;0.52;;;0.20;99.90;;;;;;4957273;28;20051;-67
2024/01/11 08:41:52;;;;;;;0.30;0.30;;;0.20;99.90;;;;;;4960125;28;20047;-67
2024/01/11 08:44:18;;;;;;;0.28;0.28;;;0.20;99.90;;;;;;4960618;28;20089;-66
2024/01/11 08:46:44;;;;;;;0.50;0.50;;;0.30;99.90;;;;;;4959604;28;20067;-67
2024/01/11 08:49:09;;;;;;;1.10;1.05;;;0.20;99.90;;;;;;4969109;28;20047;-67
2024/01/11 08:51:35;;;;;;;0.47;0.47;;;0.30;99.90;;;;;;4960623;28;20094;-66
2024/01/11 08:54:01;;;;;;;0.43;0.43;;;0.40;99.90;;;;;;4960363;28;20050;-67
2024/01/11 08:56:27;;;;;;;0.38;0.38;;;0.40;99.90;;;;;;4991794;28;20039;-67
2024/01/11 08:58:53;;;;;;;1.52;1.48;;;0.40;99.90;;;;;;4964980;28;20090;-67
2024/01/11 09:01:19;;;;;;;0.75;0.75;;;0.40;99.90;;;;;;4959479;28;20035;-67
2024/01/11 09:03:44;;;;;;;1.65;1.08;;;0.40;99.90;;;;;;4954497;28;20051;-67
2024/01/11 09:06:11;;;;;;;0.20;0.20;;;0.50;99.90;;;;;;4971972;28;20042;-66
2024/01/11 09:08:36;;;;;;;0.63;0.63;;;0.50;99.90;;;;;;4973066;28;20070;-67
2024/01/11 09:11:03;;;;;;;1.25;1.20;;;0.50;99.90;;;;;;4960022;28;20054;-67
2024/01/11 09:13:28;;;;;;;0.57;0.57;;;0.60;99.90;;;;;;4964049;28;20039;-67
2024/01/11 09:15:54;;;;;;;0.95;0.95;;;0.70;99.90;;;;;;4969046;28;20387;-67
2024/01/11 09:18:21;;;;;;;1.55;1.45;;;0.70;99.90;;;;;;4964809;28;20779;-66
2024/01/11 09:20:47;;;;;;;4.13;2.58;;;0.70;99.90;;;;;;4957172;28;20042;-67
2024/01/11 09:23:13;;;;;;;0.30;0.30;;;0.80;99.90;;;;;;4956989;28;20396;-67
2024/01/11 09:25:39;;;;;;;0.57;0.57;;;0.90;99.90;;;;;;4966799;28;20058;-66
2024/01/11 09:28:05;;;;;;;0.20;0.20;;;0.90;99.90;;;;;;4952340;28;20136;-66
2024/01/11 09:30:30;;;;;;;0.38;0.38;;;0.90;99.90;;;;;;4960414;28;20051;-67
2024/01/11 09:32:56;;;;;;;0.63;0.63;;;0.90;99.90;;;;;;4993789;28;20055;-67
2024/01/11 09:35:23;;;;;;;0.20;0.20;;;0.90;99.90;;;;;;4967684;28;20098;-67
2024/01/11 09:37:49;;;;;;;3.10;1.00;;;1.00;99.90;;;;;;4955768;28;20050;-67
2024/01/11 09:40:15;;;;;;;2.55;1.02;;;1.00;99.90;;;;;;4951128;28;20118;-67
2024/01/11 09:42:41;;;;;;;1.05;1.05;;;1.10;99.90;;;;;;4968805;28;20499;-67
2024/01/11 09:45:12;;;;;;;0.70;0.70;;;1.10;99.90;;;;;;4964528;28;20062;-67
2024/01/11 09:47:39;;;;;;;0.20;0.20;;;1.20;99.90;;;;;;4996524;28;20078;-66
2024/01/11 09:50:06;;;;;;;0.47;0.47;;;1.30;99.90;;;;;;4971839;28;20047;-67
2024/01/11 09:52:32;;;;;;;0.55;0.55;;;1.30;99.90;;;;;;5002090;28;20055;-67
2024/01/11 09:54:59;;;;;;;0.20;0.20;;;1.40;99.90;;;;;;4962147;28;20609;-67
2024/01/11 09:57:28;;;;;;;0.40;0.40;;;1.40;99.90;;;;;;4960276;28;20038;-67
2024/01/11 09:59:56;;;;;;;0.10;0.10;;;1.40;99.90;;;;;;5003279;28;20117;-67
2024/01/11 10:02:28;;;;;;;0.40;0.40;;;1.50;99.90;;;;;;4971852;28;20055;-67
2024/01/11 10:04:54;;;;;;;1.52;1.42;;;1.50;99.90;;;;;;4964898;28;20133;-67
2024/01/11 10:07:22;;;;;;;0.38;0.38;;;1.50;99.90;;;;;;4970324;28;20121;-67
2024/01/11 10:09:48;;;;;;;1.48;1.40;;;1.50;99.90;;;;;;4972116;28;20104;-67
2024/01/11 10:12:14;;;;;;;0.63;0.63;;;1.60;99.90;;;;;;4970099;28;20391;-67
2024/01/11 10:14:40;;;;;;;1.30;1.27;;;1.60;99.90;;;;;;4966204;28;20110;-67
2024/01/11 10:17:06;;;;;;;1.40;0.90;;;1.70;99.90;;;;;;4972214;28;20043;-67
2024/01/11 10:19:32;;;;;;;0.20;0.20;;;1.70;99.90;;;;;;4964146;28;20046;-67
2024/01/11 10:22:00;;;;;;;0.20;0.20;;;1.70;99.90;;;;;;4956893;28;20510;-67
2024/01/11 10:24:26;;;;;;;0.20;0.20;;;1.80;99.90;;;;;;4992171;28;20058;-68
2024/01/11 10:27:03;;;;;;;2.35;1.38;;;1.80;99.90;;;;;;4953693;28;20035;-67
2024/01/11 10:29:33;;;;;;;0.77;0.77;;;1.80;99.90;;;;;;4964967;28;20059;-67
2024/01/11 10:31:59;;;;;;;0.47;0.47;;;1.90;99.90;;;;;;4965588;28;20074;-67
2024/01/11 10:34:25;;;;;;;0.25;0.25;;;1.80;99.90;;;;;;4966489;28;20051;-67
2024/01/11 10:36:51;;;;;;;0.30;0.30;;;1.90;99.90;;;;;;4966736;28;20043;-68
2024/01/11 10:39:17;;;;;;;0.20;0.20;;;1.90;99.90;;;;;;4969628;28;20092;-68
2024/01/11 10:41:49;;;;;;;0.20;0.20;;;2.00;99.90;;;;;;4962424;28;20411;-67
2024/01/11 10:44:22;;;;;;;1.38;1.27;;;2.00;99.90;;;;;;4967333;28;20046;-68
2024/01/11 10:46:49;;;;;;;0.65;0.65;;;2.00;99.90;;;;;;4961821;28;20106;-67
2024/01/11 10:49:19;;;;;;;0.20;0.20;;;2.00;99.90;;;;;;4974187;28;20042;-67
2024/01/11 10:52:06;;;;;;;0.17;0.17;;;2.10;99.90;;;;;;4961568;28;20086;-67
2024/01/11 10:54:34;;;;;;;0.55;0.55;;;2.10;99.90;;;;;;4968472;28;20130;-67
2024/01/11 10:57:00;;;;;;;0.40;0.40;;;2.10;99.90;;;;;;4971831;28;20043;-67
2024/01/11 10:59:31;;;;;;;0.55;0.55;;;2.20;99.90;;;;;;4960565;28;20043;-68
2024/01/11 11:02:04;;;;;;;0.30;0.30;;;2.20;99.90;;;;;;4960281;28;20396;-67
2024/01/11 11:04:32;;;;;;;0.20;0.20;;;2.30;99.90;;;;;;4957263;28;20484;-67
2024/01/11 11:07:01;;;;;;;0.65;0.65;;;2.30;99.90;;;;;;4965701;28;20042;-67
2024/01/11 11:09:27;;;;;;;0.10;0.10;;;2.30;99.90;;;;;;4960324;28;20075;-67
2024/01/11 11:11:58;;;;;;;0.20;0.20;;;2.40;99.90;;;;;;4964678;28;20085;-67
2024/01/11 11:14:24;;;;;;;0.13;0.13;;;2.30;99.90;;;;;;4970237;28;20085;-67
2024/01/11 11:16:51;;;;;;;0.60;0.60;;;2.40;99.90;;;;;;5002101;28;20454;-67
2024/01/11 11:19:19;;;;;;;0.40;0.40;;;2.40;99.90;;;;;;4962905;28;20039;-67
2024/01/11 11:21:47;;;;;;;0.20;0.20;;;2.50;99.90;;;;;;4993934;28;20061;-67
2024/01/11 11:24:13;;;;;;;0.32;0.32;;;2.50;99.90;;;;;;4959556;28;20094;-67
2024/01/11 11:26:38;;;;;;;0.10;0.10;;;2.50;99.90;;;;;;4962716;28;20055;-68
2024/01/11 11:29:05;;;;;;;0.95;0.95;;;2.50;99.90;;;;;;4990315;28;20059;-67
2024/01/11 11:31:35;;;;;;;0.32;0.32;;;2.60;99.90;;;;;;4964491;28;20046;-67
2024/01/11 11:34:03;;;;;;;0.20;0.20;;;2.60;99.90;;;;;;4964841;28;20047;-67
2024/01/11 11:36:30;;;;;;;0.10;0.10;;;2.60;99.90;;;;;;4955656;28;20035;-67
2024/01/11 11:39:00;;;;;;;0.10;0.10;;;2.60;99.90;;;;;;4977989;28;20093;-67
2024/01/11 11:41:26;;;;;;;0.63;0.63;;;2.70;99.90;;;;;;4992991;28;20039;-67
2024/01/11 11:43:52;;;;;;;0.20;0.20;;;2.70;99.90;;;;;;4964684;28;20070;-67
2024/01/11 11:46:19;;;;;;;0.20;0.20;;;2.70;99.90;;;;;;4968693;28;20086;-67
2024/01/11 11:48:52;;;;;;;0.13;0.13;;;2.80;99.90;;;;;;4964202;28;20407;-67
2024/01/11 11:51:22;;;;;;;0.20;0.20;;;2.80;99.90;;;;;;4962907;28;20034;-67
2024/01/11 11:53:49;;;;;;;0.20;0.20;;;2.90;99.90;;;;;;4968857;28;20050;-67
2024/01/11 11:56:21;;;;;;;0.47;0.47;;;2.90;99.90;;;;;;4966661;28;20047;-67
2024/01/11 11:58:48;;;;;;;0.25;0.25;;;3.00;99.90;;;;;;4954244;28;20122;-67
2024/01/11 12:01:15;;;;;;;0.55;0.55;;;3.00;99.90;;;;;;4963599;28;20410;-67
2024/01/11 12:03:42;;;;;;;0.10;0.10;;;3.00;99.90;;;;;;4968439;28;20518;-67
2024/01/11 12:06:10;;;;;;;0.20;0.20;;;3.00;99.90;;;;;;4962604;28;20410;-67
2024/01/11 12:08:36;;;;;;;0.10;0.10;;;3.10;99.90;;;;;;4959188;28;20062;-67
2024/01/11 12:11:03;;;;;;;0.32;0.32;;;3.10;99.90;;;;;;4967192;28;20476;-67
2024/01/11 12:13:28;;;;;;;0.10;0.10;;;3.10;99.90;;;;;;4959814;28;20113;-68
2024/01/11 12:15:55;;;;;;;0.10;0.10;;;3.20;99.90;;;;;;4962604;28;20500;-68
2024/01/11 12:18:21;;;;;;;0.10;0.10;;;3.20;99.90;;;;;;4964857;28;20047;-68
2024/01/11 12:20:46;;;;;;;0.17;0.17;;;3.20;99.90;;;;;;4958800;28;20128;-68
2024/01/11 12:23:13;;;;;;;0.57;0.57;;;3.20;99.90;;;;;;4995630;28;20047;-67
2024/01/11 12:25:40;;;;;;;0.28;0.28;;;3.20;99.90;;;;;;4995389;28;20062;-68
2024/01/11 12:28:07;;;;;;;0.20;0.20;;;3.20;99.90;;;;;;4957863;28;20043;-67
2024/01/11 12:30:32;;;;;;;0.13;0.13;;;3.20;99.90;;;;;;5000634;28;20081;-68
2024/01/11 12:33:01;;;;;;;0.10;0.10;;;3.20;99.90;;;;;;4965937;28;20078;-67
2024/01/11 12:35:27;;;;;;;0.40;0.40;;;3.30;99.90;;;;;;4967347;28;20078;-67
2024/01/11 12:38:09;;;;;;;0.40;0.40;;;3.30;99.90;;;;;;5054372;27;20392;-67
2024/01/11 12:40:37;;;;;;;0.10;0.10;;;3.30;99.90;;;;;;5046472;28;20076;-67
2024/01/11 12:43:10;;;;;;;0.10;0.10;;;3.30;99.90;;;;;;5033724;28;20048;-67
2024/01/11 12:45:36;;;;;;;0.20;0.20;;;3.40;99.90;;;;;;5043873;28;20109;-67